sensor_id;sensor_type;location;lat;lon;timestamp;pressure;altitude;pressure_sealevel;temperature;humidity
64908;BME280;64365;-1.756;110.040;2022-12-18T00:01:50;102775.03;;;0.33;83.78
64908;BME280;64365;-1.756;110.040;2022-12-18T00:04:21;102770.09;;;0.37;85.19
64908;BME280;64365;-1.756;110.040;2022-12-18T00:06:48;102763.16;;;0.48;85.79
64908;BME280;64365;-1.756;110.040;2022-12-18T00:09:15;102759.53;;;0.54;86.30
64908;BME280;64365;-1.756;110.040;2022-12-18T00:11:42;102767.25;;;0.66;87.91
64908;BME280;64365;-1.756;110.040;2022-12-18T00:14:10;102755.06;;;0.77;85.30
64908;BME280;64365;-1.756;110.040;2022-12-18T00:16:38;102755.00;;;0.72;85.93
64908;BME280;64365;-1.756;110.040;2022-12-18T00:19:06;102762.22;;;0.87;85.25
64908;BME280;64365;-1.756;110.040;2022-12-18T00:21:33;102762.13;;;0.76;83.33
64908;BME280;64365;-1.756;110.040;2022-12-18T00:24:00;102749.97;;;0.65;84.14
64908;BME280;64365;-1.756;110.040;2022-12-18T00:26:29;102760.03;;;0.78;86.16
64908;BME280;64365;-1.756;110.040;2022-12-18T00:28:59;102761.53;;;0.96;85.75
64908;BME280;64365;-1.756;110.040;2022-12-18T00:31:26;102763.53;;;0.84;82.23
64908;BME280;64365;-1.756;110.040;2022-12-18T00:33:54;102757.88;;;0.70;83.38
64908;BME280;64365;-1.756;110.040;2022-12-18T00:36:23;102763.03;;;0.60;81.62
64908;BME280;64365;-1.756;110.040;2022-12-18T00:38:50;102757.38;;;0.46;80.39
64908;BME280;64365;-1.756;110.040;2022-12-18T00:41:18;102766.94;;;0.35;80.97
64908;BME280;64365;-1.756;110.040;2022-12-18T00:44:06;102771.56;;;0.28;83.38
64908;BME280;64365;-1.756;110.040;2022-12-18T00:46:32;102764.03;;;0.31;82.83
64908;BME280;64365;-1.756;110.040;2022-12-18T00:48:59;102779.34;;;0.23;84.03
64908;BME280;64365;-1.756;110.040;2022-12-18T00:51:27;102768.34;;;0.21;83.68
64908;BME280;64365;-1.756;110.040;2022-12-18T00:53:53;102773.94;;;0.29;82.73
64908;BME280;64365;-1.756;110.040;2022-12-18T00:56:20;102769.44;;;0.25;82.27
64908;BME280;64365;-1.756;110.040;2022-12-18T00:58:47;102760.81;;;0.02;78.71
64908;BME280;64365;-1.756;110.040;2022-12-18T01:01:14;102747.47;;;-0.19;79.64
64908;BME280;64365;-1.756;110.040;2022-12-18T01:03:41;102754.69;;;-0.26;80.93
64908;BME280;64365;-1.756;110.040;2022-12-18T01:06:09;102761.38;;;-0.35;81.54
64908;BME280;64365;-1.756;110.040;2022-12-18T01:08:38;102754.41;;;-0.46;79.71
64908;BME280;64365;-1.756;110.040;2022-12-18T01:11:08;102757.03;;;-0.46;80.33
64908;BME280;64365;-1.756;110.040;2022-12-18T01:13:34;102758.94;;;-0.42;80.45
64908;BME280;64365;-1.756;110.040;2022-12-18T01:16:01;102762.00;;;-0.45;79.64
64908;BME280;64365;-1.756;110.040;2022-12-18T01:18:27;102755.91;;;-0.51;80.10
64908;BME280;64365;-1.756;110.040;2022-12-18T01:20:54;102752.84;;;-0.64;79.70
64908;BME280;64365;-1.756;110.040;2022-12-18T01:23:20;102758.59;;;-0.62;80.18
64908;BME280;64365;-1.756;110.040;2022-12-18T01:25:48;102758.47;;;-0.73;79.12
64908;BME280;64365;-1.756;110.040;2022-12-18T01:28:15;102762.88;;;-0.73;81.22
64908;BME280;64365;-1.756;110.040;2022-12-18T01:30:42;102766.22;;;-0.78;80.19
64908;BME280;64365;-1.756;110.040;2022-12-18T01:33:08;102762.97;;;-0.85;80.27
64908;BME280;64365;-1.756;110.040;2022-12-18T01:35:40;102760.81;;;-0.88;80.97
64908;BME280;64365;-1.756;110.040;2022-12-18T01:38:06;102772.47;;;-0.79;81.56
64908;BME280;64365;-1.756;110.040;2022-12-18T01:40:33;102768.34;;;-0.58;88.02
64908;BME280;64365;-1.756;110.040;2022-12-18T01:43:01;102768.16;;;-0.34;87.36
64908;BME280;64365;-1.756;110.040;2022-12-18T01:45:30;102766.13;;;-0.32;84.14
64908;BME280;64365;-1.756;110.040;2022-12-18T01:47:59;102766.84;;;-0.54;83.33
64908;BME280;64365;-1.756;110.040;2022-12-18T01:50:31;102769.72;;;-0.55;82.91
64908;BME280;64365;-1.756;110.040;2022-12-18T01:53:03;102769.22;;;-0.69;81.46
64908;BME280;64365;-1.756;110.040;2022-12-18T01:55:32;102775.22;;;-0.86;81.46
64908;BME280;64365;-1.756;110.040;2022-12-18T01:58:03;102790.75;;;-0.79;80.77
64908;BME280;64365;-1.756;110.040;2022-12-18T02:00:30;102786.63;;;-0.92;80.50
64908;BME280;64365;-1.756;110.040;2022-12-18T02:02:57;102798.56;;;-0.79;85.96
64908;BME280;64365;-1.756;110.040;2022-12-18T02:05:33;102805.53;;;-0.51;89.48
64908;BME280;64365;-1.756;110.040;2022-12-18T02:08:09;102795.50;;;-0.42;83.75
64908;BME280;64365;-1.756;110.040;2022-12-18T02:10:44;102813.47;;;-0.45;83.52
64908;BME280;64365;-1.756;110.040;2022-12-18T02:13:19;102816.78;;;-0.33;85.83
64908;BME280;64365;-1.756;110.040;2022-12-18T02:15:49;102824.00;;;-0.40;86.36
64908;BME280;64365;-1.756;110.040;2022-12-18T02:18:21;102828.19;;;-0.22;85.71
64908;BME280;64365;-1.756;110.040;2022-12-18T02:20:54;102828.41;;;-0.07;84.64
64908;BME280;64365;-1.756;110.040;2022-12-18T02:23:36;102830.88;;;-0.17;81.05
64908;BME280;64365;-1.756;110.040;2022-12-18T02:26:15;102826.38;;;-0.22;81.28
64908;BME280;64365;-1.756;110.040;2022-12-18T02:28:46;102818.59;;;-0.51;82.69
64908;BME280;64365;-1.756;110.040;2022-12-18T02:31:19;102814.19;;;-0.50;88.56
64908;BME280;64365;-1.756;110.040;2022-12-18T02:33:52;102809.44;;;-0.36;85.09
64908;BME280;64365;-1.756;110.040;2022-12-18T02:36:23;102812.44;;;-0.44;83.13
64908;BME280;64365;-1.756;110.040;2022-12-18T02:38:52;102805.00;;;-0.53;81.40
64908;BME280;64365;-1.756;110.040;2022-12-18T02:41:22;102801.69;;;-0.65;84.39
64908;BME280;64365;-1.756;110.040;2022-12-18T02:43:54;102788.84;;;-0.66;82.00
64908;BME280;64365;-1.756;110.040;2022-12-18T02:46:29;102780.53;;;-0.80;84.34
64908;BME280;64365;-1.756;110.040;2022-12-18T02:49:08;102787.44;;;-0.74;85.98
64908;BME280;64365;-1.756;110.040;2022-12-18T02:51:47;102782.22;;;-0.74;82.32
64908;BME280;64365;-1.756;110.040;2022-12-18T02:54:23;102777.84;;;-0.86;81.62
64908;BME280;64365;-1.756;110.040;2022-12-18T02:56:56;102757.41;;;-1.06;80.97
64908;BME280;64365;-1.756;110.040;2022-12-18T02:59:29;102764.44;;;-1.06;83.41
64908;BME280;64365;-1.756;110.040;2022-12-18T03:01:58;102763.16;;;-1.21;82.06
64908;BME280;64365;-1.756;110.040;2022-12-18T03:04:30;102760.94;;;-1.29;81.72
64908;BME280;64365;-1.756;110.040;2022-12-18T03:07:02;102759.50;;;-1.37;81.88
64908;BME280;64365;-1.756;110.040;2022-12-18T03:09:32;102761.69;;;-1.45;80.97
64908;BME280;64365;-1.756;110.040;2022-12-18T03:12:06;102758.31;;;-1.58;81.38
64908;BME280;64365;-1.756;110.040;2022-12-18T03:14:53;102755.47;;;-1.56;80.37
64908;BME280;64365;-1.756;110.040;2022-12-18T03:17:25;102751.09;;;-1.67;80.09
64908;BME280;64365;-1.756;110.040;2022-12-18T03:19:53;102747.94;;;-1.81;81.06
64908;BME280;64365;-1.756;110.040;2022-12-18T03:22:23;102744.94;;;-1.90;81.74
64908;BME280;64365;-1.756;110.040;2022-12-18T03:24:55;102727.38;;;-1.95;81.29
64908;BME280;64365;-1.756;110.040;2022-12-18T03:27:24;102737.59;;;-2.05;82.10
64908;BME280;64365;-1.756;110.040;2022-12-18T03:29:56;102735.41;;;-1.96;81.65
64908;BME280;64365;-1.756;110.040;2022-12-18T03:32:35;102734.72;;;-1.92;81.68
64908;BME280;64365;-1.756;110.040;2022-12-18T03:35:04;102724.97;;;-1.84;83.81
64908;BME280;64365;-1.756;110.040;2022-12-18T03:37:31;102721.34;;;-1.83;83.16
64908;BME280;64365;-1.756;110.040;2022-12-18T03:39:58;102734.22;;;-1.65;85.30
64908;BME280;64365;-1.756;110.040;2022-12-18T03:42:28;102725.31;;;-1.52;85.56
64908;BME280;64365;-1.756;110.040;2022-12-18T03:45:00;102719.72;;;-1.44;85.26
64908;BME280;64365;-1.756;110.040;2022-12-18T03:47:34;102716.66;;;-1.41;83.86
64908;BME280;64365;-1.756;110.040;2022-12-18T03:50:11;102717.81;;;-1.48;80.57
64908;BME280;64365;-1.756;110.040;2022-12-18T03:52:44;102714.53;;;-1.56;79.34
64908;BME280;64365;-1.756;110.040;2022-12-18T03:55:13;102700.38;;;-1.60;80.12
64908;BME280;64365;-1.756;110.040;2022-12-18T03:57:42;102705.97;;;-1.68;80.81
64908;BME280;64365;-1.756;110.040;2022-12-18T04:00:12;102711.19;;;-1.68;81.20
64908;BME280;64365;-1.756;110.040;2022-12-18T04:02:43;102695.00;;;-1.70;83.14
64908;BME280;64365;-1.756;110.040;2022-12-18T04:05:11;102706.41;;;-1.59;80.95
64908;BME280;64365;-1.756;110.040;2022-12-18T04:07:39;102701.09;;;-1.64;80.72
64908;BME280;64365;-1.756;110.040;2022-12-18T04:10:07;102687.72;;;-1.68;79.54
64908;BME280;64365;-1.756;110.040;2022-12-18T04:12:38;102679.13;;;-1.68;79.05
64908;BME280;64365;-1.756;110.040;2022-12-18T04:15:08;102673.56;;;-1.72;78.11
64908;BME280;64365;-1.756;110.040;2022-12-18T04:17:34;102666.56;;;-1.72;81.86
64908;BME280;64365;-1.756;110.040;2022-12-18T04:20:02;102683.81;;;-1.54;83.78
64908;BME280;64365;-1.756;110.040;2022-12-18T04:22:29;102677.75;;;-1.42;83.16
64908;BME280;64365;-1.756;110.040;2022-12-18T04:24:55;102676.84;;;-1.19;88.58
64908;BME280;64365;-1.756;110.040;2022-12-18T04:27:22;102680.56;;;-0.81;90.82
64908;BME280;64365;-1.756;110.040;2022-12-18T04:29:48;102681.72;;;-0.72;88.36
64908;BME280;64365;-1.756;110.040;2022-12-18T04:32:16;102681.56;;;-0.82;84.61
64908;BME280;64365;-1.756;110.040;2022-12-18T04:34:43;102687.97;;;-0.90;81.48
64908;BME280;64365;-1.756;110.040;2022-12-18T04:37:09;102685.75;;;-0.98;79.02
64908;BME280;64365;-1.756;110.040;2022-12-18T04:39:36;102683.63;;;-1.18;77.46
64908;BME280;64365;-1.756;110.040;2022-12-18T04:42:03;102701.78;;;-1.23;78.31
64908;BME280;64365;-1.756;110.040;2022-12-18T04:44:29;102704.94;;;-1.38;79.40
64908;BME280;64365;-1.756;110.040;2022-12-18T04:46:56;102708.50;;;-1.44;77.92
64908;BME280;64365;-1.756;110.040;2022-12-18T04:49:24;102707.28;;;-1.54;77.28
64908;BME280;64365;-1.756;110.040;2022-12-18T04:51:50;102709.44;;;-1.50;78.72
64908;BME280;64365;-1.756;110.040;2022-12-18T04:54:18;102714.00;;;-1.58;78.59
64908;BME280;64365;-1.756;110.040;2022-12-18T04:56:47;102723.53;;;-1.63;77.09
64908;BME280;64365;-1.756;110.040;2022-12-18T04:59:14;102726.84;;;-1.68;76.44
64908;BME280;64365;-1.756;110.040;2022-12-18T05:01:40;102730.00;;;-1.66;81.69
64908;BME280;64365;-1.756;110.040;2022-12-18T05:04:07;102735.22;;;-1.66;79.37
64908;BME280;64365;-1.756;110.040;2022-12-18T05:06:35;102747.25;;;-1.65;81.70
64908;BME280;64365;-1.756;110.040;2022-12-18T05:09:01;102740.53;;;-1.61;79.41
64908;BME280;64365;-1.756;110.040;2022-12-18T05:11:28;102736.72;;;-1.70;77.37
64908;BME280;64365;-1.756;110.040;2022-12-18T05:13:55;102743.84;;;-1.77;78.29
64908;BME280;64365;-1.756;110.040;2022-12-18T05:16:24;102738.56;;;-1.82;77.02
64908;BME280;64365;-1.756;110.040;2022-12-18T05:18:51;102735.03;;;-1.88;75.70
64908;BME280;64365;-1.756;110.040;2022-12-18T05:21:17;102748.78;;;-1.93;74.77
64908;BME280;64365;-1.756;110.040;2022-12-18T05:23:45;102754.13;;;-1.99;74.90
64908;BME280;64365;-1.756;110.040;2022-12-18T05:26:15;102763.19;;;-2.02;76.24
64908;BME280;64365;-1.756;110.040;2022-12-18T05:28:43;102773.94;;;-1.98;81.47
64908;BME280;64365;-1.756;110.040;2022-12-18T05:31:10;102767.50;;;-1.96;77.25
64908;BME280;64365;-1.756;110.040;2022-12-18T05:33:37;102766.38;;;-2.00;78.12
64908;BME280;64365;-1.756;110.040;2022-12-18T05:36:05;102761.03;;;-1.93;81.69
64908;BME280;64365;-1.756;110.040;2022-12-18T05:38:34;102748.94;;;-1.71;86.69
64908;BME280;64365;-1.756;110.040;2022-12-18T05:41:02;102738.44;;;-1.47;88.10
64908;BME280;64365;-1.756;110.040;2022-12-18T05:43:29;102728.88;;;-1.41;83.46
64908;BME280;64365;-1.756;110.040;2022-12-18T05:45:56;102733.75;;;-1.16;87.86
64908;BME280;64365;-1.756;110.040;2022-12-18T05:48:23;102736.63;;;-0.83;90.56
64908;BME280;64365;-1.756;110.040;2022-12-18T05:50:50;102723.19;;;-0.75;88.32
64908;BME280;64365;-1.756;110.040;2022-12-18T05:53:19;102733.13;;;-0.72;81.65
64908;BME280;64365;-1.756;110.040;2022-12-18T05:55:46;102717.91;;;-0.97;79.04
64908;BME280;64365;-1.756;110.040;2022-12-18T05:58:14;102714.41;;;-1.20;74.87
64908;BME280;64365;-1.756;110.040;2022-12-18T06:00:43;102711.59;;;-1.30;81.76
64908;BME280;64365;-1.756;110.040;2022-12-18T06:03:11;102713.34;;;-1.36;84.64
64908;BME280;64365;-1.756;110.040;2022-12-18T06:05:39;102722.38;;;-1.10;87.63
64908;BME280;64365;-1.756;110.040;2022-12-18T06:08:05;102714.81;;;-0.94;85.66
64908;BME280;64365;-1.756;110.040;2022-12-18T06:10:32;102706.81;;;-0.88;84.15
64908;BME280;64365;-1.756;110.040;2022-12-18T06:12:59;102705.44;;;-0.73;85.87
64908;BME280;64365;-1.756;110.040;2022-12-18T06:15:27;102703.56;;;-0.61;87.72
64908;BME280;64365;-1.756;110.040;2022-12-18T06:17:54;102705.13;;;-0.60;84.58
64908;BME280;64365;-1.756;110.040;2022-12-18T06:20:20;102668.59;;;-0.77;85.21
64908;BME280;64365;-1.756;110.040;2022-12-18T06:22:47;102709.94;;;-0.52;86.49
64908;BME280;64365;-1.756;110.040;2022-12-18T06:25:14;102701.28;;;-0.35;87.81
64908;BME280;64365;-1.756;110.040;2022-12-18T06:27:40;102702.38;;;-0.31;84.60
64908;BME280;64365;-1.756;110.040;2022-12-18T06:30:08;102690.09;;;-0.53;79.89
64908;BME280;64365;-1.756;110.040;2022-12-18T06:32:36;102690.31;;;-0.54;82.47
64908;BME280;64365;-1.756;110.040;2022-12-18T06:35:04;102699.38;;;-0.40;86.45
64908;BME280;64365;-1.756;110.040;2022-12-18T06:37:31;102691.94;;;-0.31;83.33
64908;BME280;64365;-1.756;110.040;2022-12-18T06:39:58;102683.88;;;-0.46;80.28
64908;BME280;64365;-1.756;110.040;2022-12-18T06:42:26;102668.44;;;-0.70;78.67
64908;BME280;64365;-1.756;110.040;2022-12-18T06:44:52;102669.25;;;-0.87;76.70
64908;BME280;64365;-1.756;110.040;2022-12-18T06:47:19;102678.09;;;-1.05;75.66
64908;BME280;64365;-1.756;110.040;2022-12-18T06:49:47;102662.44;;;-1.22;74.80
64908;BME280;64365;-1.756;110.040;2022-12-18T06:52:14;102664.41;;;-1.29;78.29
64908;BME280;64365;-1.756;110.040;2022-12-18T06:54:43;102664.41;;;-1.29;78.87
64908;BME280;64365;-1.756;110.040;2022-12-18T06:57:10;102658.88;;;-1.32;78.14
64908;BME280;64365;-1.756;110.040;2022-12-18T06:59:36;102657.44;;;-1.40;77.48
64908;BME280;64365;-1.756;110.040;2022-12-18T07:02:03;102653.81;;;-1.39;79.98
64908;BME280;64365;-1.756;110.040;2022-12-18T07:04:30;102641.66;;;-1.33;82.40
64908;BME280;64365;-1.756;110.040;2022-12-18T07:06:58;102646.09;;;-1.00;85.70
64908;BME280;64365;-1.756;110.040;2022-12-18T07:09:25;102643.28;;;-0.76;85.17
64908;BME280;64365;-1.756;110.040;2022-12-18T07:11:51;102646.22;;;-0.51;82.84
64908;BME280;64365;-1.756;110.040;2022-12-18T07:14:21;102641.63;;;-0.43;80.63
64908;BME280;64365;-1.756;110.040;2022-12-18T07:16:48;102641.47;;;-0.54;78.30
64908;BME280;64365;-1.756;110.040;2022-12-18T07:19:14;102630.47;;;-0.78;76.08
64908;BME280;64365;-1.756;110.040;2022-12-18T07:21:41;102636.25;;;-0.76;76.53
64908;BME280;64365;-1.756;110.040;2022-12-18T07:24:09;102633.50;;;-1.03;72.66
64908;BME280;64365;-1.756;110.040;2022-12-18T07:26:36;102637.19;;;-0.99;77.13
64908;BME280;64365;-1.756;110.040;2022-12-18T07:29:02;102630.88;;;-1.03;76.49
64908;BME280;64365;-1.756;110.040;2022-12-18T07:31:29;102629.94;;;-0.97;79.18
64908;BME280;64365;-1.756;110.040;2022-12-18T07:33:56;102617.41;;;-0.95;78.34
64908;BME280;64365;-1.756;110.040;2022-12-18T07:36:23;102620.88;;;-0.72;79.87
64908;BME280;64365;-1.756;110.040;2022-12-18T07:38:50;102620.53;;;-0.59;78.77
64908;BME280;64365;-1.756;110.040;2022-12-18T07:41:20;102615.72;;;-0.67;78.47
64908;BME280;64365;-1.756;110.040;2022-12-18T07:43:46;102613.53;;;-0.75;74.20
64908;BME280;64365;-1.756;110.040;2022-12-18T07:46:14;102596.31;;;-0.93;74.24
64908;BME280;64365;-1.756;110.040;2022-12-18T07:48:41;102584.22;;;-0.99;75.14
64908;BME280;64365;-1.756;110.040;2022-12-18T07:51:12;102585.56;;;-0.97;77.37
64908;BME280;64365;-1.756;110.040;2022-12-18T07:53:39;102581.16;;;-0.74;81.55
64908;BME280;64365;-1.756;110.040;2022-12-18T07:56:07;102582.94;;;-0.58;79.60
64908;BME280;64365;-1.756;110.040;2022-12-18T07:58:36;102581.22;;;-0.69;76.64
64908;BME280;64365;-1.756;110.040;2022-12-18T08:01:10;102585.84;;;-0.76;74.38
64908;BME280;64365;-1.756;110.040;2022-12-18T08:03:45;102577.47;;;-0.78;76.87
64908;BME280;64365;-1.756;110.040;2022-12-18T08:06:11;102572.41;;;-0.63;80.24
64908;BME280;64365;-1.756;110.040;2022-12-18T08:08:38;102568.53;;;-0.60;78.41
64908;BME280;64365;-1.756;110.040;2022-12-18T08:11:06;102574.66;;;-0.49;79.15
64908;BME280;64365;-1.756;110.040;2022-12-18T08:13:33;102577.50;;;-0.29;83.12
64908;BME280;64365;-1.756;110.040;2022-12-18T08:16:03;102574.88;;;-0.07;80.20
64908;BME280;64365;-1.756;110.040;2022-12-18T08:18:32;102586.09;;;-0.06;79.01
64908;BME280;64365;-1.756;110.040;2022-12-18T08:21:07;102592.75;;;-0.21;71.39
64908;BME280;64365;-1.756;110.040;2022-12-18T08:23:34;102600.41;;;-0.36;73.56
64908;BME280;64365;-1.756;110.040;2022-12-18T08:26:01;102615.16;;;-0.69;72.67
64908;BME280;64365;-1.756;110.040;2022-12-18T08:28:27;102612.50;;;-0.74;72.93
64908;BME280;64365;-1.756;110.040;2022-12-18T08:30:54;102614.78;;;-0.78;75.98
64908;BME280;64365;-1.756;110.040;2022-12-18T08:33:22;102611.41;;;-0.78;75.92
64908;BME280;64365;-1.756;110.040;2022-12-18T08:35:49;102606.22;;;-0.73;78.54
64908;BME280;64365;-1.756;110.040;2022-12-18T08:38:16;102616.88;;;-0.58;77.89
64908;BME280;64365;-1.756;110.040;2022-12-18T08:40:42;102607.75;;;-0.77;75.04
64908;BME280;64365;-1.756;110.040;2022-12-18T08:43:10;102598.47;;;-0.68;77.34
64908;BME280;64365;-1.756;110.040;2022-12-18T08:45:54;102596.66;;;-0.68;76.43
64908;BME280;64365;-1.756;110.040;2022-12-18T08:48:22;102586.75;;;-0.65;75.30
64908;BME280;64365;-1.756;110.040;2022-12-18T08:50:54;102580.00;;;-0.83;76.22
64908;BME280;64365;-1.756;110.040;2022-12-18T08:53:21;102591.19;;;-0.66;75.70
64908;BME280;64365;-1.756;110.040;2022-12-18T08:55:50;102581.72;;;-0.50;81.33
64908;BME280;64365;-1.756;110.040;2022-12-18T08:58:17;102587.50;;;-0.21;80.73
64908;BME280;64365;-1.756;110.040;2022-12-18T09:00:43;102585.59;;;-0.03;78.78
64908;BME280;64365;-1.756;110.040;2022-12-18T09:03:11;102601.81;;;0.26;79.15
64908;BME280;64365;-1.756;110.040;2022-12-18T09:05:39;102576.81;;;0.36;76.61
64908;BME280;64365;-1.756;110.040;2022-12-18T09:08:06;102573.97;;;0.42;77.10
64908;BME280;64365;-1.756;110.040;2022-12-18T09:10:34;102575.09;;;0.52;75.96
64908;BME280;64365;-1.756;110.040;2022-12-18T09:13:01;102584.81;;;0.56;75.67
64908;BME280;64365;-1.756;110.040;2022-12-18T09:15:27;102582.50;;;0.32;73.55
64908;BME280;64365;-1.756;110.040;2022-12-18T09:17:54;102595.00;;;0.25;73.87
64908;BME280;64365;-1.756;110.040;2022-12-18T09:20:21;102588.66;;;0.16;74.03
64908;BME280;64365;-1.756;110.040;2022-12-18T09:22:56;102582.69;;;0.21;75.48
64908;BME280;64365;-1.756;110.040;2022-12-18T09:25:23;102583.78;;;0.25;75.34
64908;BME280;64365;-1.756;110.040;2022-12-18T09:27:50;102582.13;;;0.19;74.99
64908;BME280;64365;-1.756;110.040;2022-12-18T09:30:16;102576.78;;;0.03;73.76
64908;BME280;64365;-1.756;110.040;2022-12-18T09:32:43;102571.25;;;-0.01;74.18
64908;BME280;64365;-1.756;110.040;2022-12-18T09:35:09;102563.66;;;-0.02;73.33
64908;BME280;64365;-1.756;110.040;2022-12-18T09:37:36;102567.41;;;-0.20;76.49
64908;BME280;64365;-1.756;110.040;2022-12-18T09:40:05;102567.59;;;0.01;78.19
64908;BME280;64365;-1.756;110.040;2022-12-18T09:42:32;102560.75;;;-0.06;75.20
64908;BME280;64365;-1.756;110.040;2022-12-18T09:44:59;102555.75;;;-0.07;74.98
64908;BME280;64365;-1.756;110.040;2022-12-18T09:47:29;102564.63;;;-0.08;74.38
64908;BME280;64365;-1.756;110.040;2022-12-18T09:49:59;102566.41;;;-0.14;73.57
64908;BME280;64365;-1.756;110.040;2022-12-18T09:52:30;102560.91;;;-0.18;73.65
64908;BME280;64365;-1.756;110.040;2022-12-18T09:55:03;102554.19;;;-0.08;74.23
64908;BME280;64365;-1.756;110.040;2022-12-18T09:57:35;102546.59;;;-0.10;74.19
64908;BME280;64365;-1.756;110.040;2022-12-18T10:00:08;102537.41;;;-0.18;72.29
64908;BME280;64365;-1.756;110.040;2022-12-18T10:02:37;102542.75;;;-0.29;72.44
64908;BME280;64365;-1.756;110.040;2022-12-18T10:05:07;102533.66;;;-0.49;71.93
64908;BME280;64365;-1.756;110.040;2022-12-18T10:07:42;102522.81;;;-0.63;74.33
64908;BME280;64365;-1.756;110.040;2022-12-18T10:10:19;102545.94;;;-0.49;75.58
64908;BME280;64365;-1.756;110.040;2022-12-18T10:12:55;102535.56;;;-0.44;75.31
64908;BME280;64365;-1.756;110.040;2022-12-18T10:15:28;102539.84;;;-0.33;74.84
64908;BME280;64365;-1.756;110.040;2022-12-18T10:18:04;102559.03;;;-0.22;75.18
64908;BME280;64365;-1.756;110.040;2022-12-18T10:20:41;102555.25;;;-0.04;75.26
64908;BME280;64365;-1.756;110.040;2022-12-18T10:23:14;102548.97;;;-0.08;73.13
64908;BME280;64365;-1.756;110.040;2022-12-18T10:25:50;102530.84;;;-0.15;73.16
64908;BME280;64365;-1.756;110.040;2022-12-18T10:28:22;102523.06;;;-0.10;73.48
64908;BME280;64365;-1.756;110.040;2022-12-18T10:30:49;102528.34;;;-0.05;73.14
64908;BME280;64365;-1.756;110.040;2022-12-18T10:33:18;102532.03;;;-0.01;73.05
64908;BME280;64365;-1.756;110.040;2022-12-18T10:35:47;102531.31;;;0.04;74.61
64908;BME280;64365;-1.756;110.040;2022-12-18T10:38:23;102531.09;;;0.11;73.75
64908;BME280;64365;-1.756;110.040;2022-12-18T10:40:52;102533.00;;;0.21;72.72
64908;BME280;64365;-1.756;110.040;2022-12-18T10:43:25;102518.31;;;0.14;72.17
64908;BME280;64365;-1.756;110.040;2022-12-18T10:46:01;102507.19;;;-0.03;71.28
64908;BME280;64365;-1.756;110.040;2022-12-18T10:48:29;102522.16;;;0.07;71.71
64908;BME280;64365;-1.756;110.040;2022-12-18T10:50:56;102516.19;;;0.11;72.20
64908;BME280;64365;-1.756;110.040;2022-12-18T10:53:25;102504.66;;;0.07;72.18
64908;BME280;64365;-1.756;110.040;2022-12-18T10:55:54;102518.31;;;0.14;71.63
64908;BME280;64365;-1.756;110.040;2022-12-18T10:58:28;102502.72;;;0.25;73.65
64908;BME280;64365;-1.756;110.040;2022-12-18T11:01:06;102487.53;;;0.27;71.32
64908;BME280;64365;-1.756;110.040;2022-12-18T11:03:36;102477.09;;;0.27;71.13
64908;BME280;64365;-1.756;110.040;2022-12-18T11:06:06;102479.66;;;0.22;72.34
64908;BME280;64365;-1.756;110.040;2022-12-18T11:08:33;102478.16;;;0.31;72.97
64908;BME280;64365;-1.756;110.040;2022-12-18T11:11:00;102478.22;;;0.41;73.14
64908;BME280;64365;-1.756;110.040;2022-12-18T11:13:30;102484.09;;;0.59;73.24
64908;BME280;64365;-1.756;110.040;2022-12-18T11:15:57;102475.97;;;0.60;72.21
64908;BME280;64365;-1.756;110.040;2022-12-18T11:18:27;102475.47;;;0.58;71.28
64908;BME280;64365;-1.756;110.040;2022-12-18T11:20:55;102463.16;;;0.59;73.57
64908;BME280;64365;-1.756;110.040;2022-12-18T11:23:24;102455.34;;;0.64;72.04
64908;BME280;64365;-1.756;110.040;2022-12-18T11:25:53;102452.25;;;0.72;71.45
64908;BME280;64365;-1.756;110.040;2022-12-18T11:28:34;102450.19;;;0.84;70.80
64908;BME280;64365;-1.756;110.040;2022-12-18T11:31:23;102464.59;;;0.87;69.56
64908;BME280;64365;-1.756;110.040;2022-12-18T11:33:56;102456.75;;;0.87;69.64
64908;BME280;64365;-1.756;110.040;2022-12-18T11:36:26;102462.25;;;0.91;69.58
64908;BME280;64365;-1.756;110.040;2022-12-18T11:38:55;102460.63;;;0.79;70.92
64908;BME280;64365;-1.756;110.040;2022-12-18T11:41:27;102462.25;;;0.96;72.79
64908;BME280;64365;-1.756;110.040;2022-12-18T11:44:13;102450.81;;;1.12;70.81
64908;BME280;64365;-1.756;110.040;2022-12-18T11:46:47;102456.31;;;1.21;69.78
64908;BME280;64365;-1.756;110.040;2022-12-18T11:49:20;102451.63;;;1.23;70.41
64908;BME280;64365;-1.756;110.040;2022-12-18T11:51:50;102450.81;;;1.17;69.50
64908;BME280;64365;-1.756;110.040;2022-12-18T11:54:18;102436.16;;;1.27;70.51
64908;BME280;64365;-1.756;110.040;2022-12-18T11:56:49;102436.44;;;1.25;69.25
64908;BME280;64365;-1.756;110.040;2022-12-18T11:59:27;102419.41;;;1.23;70.29
64908;BME280;64365;-1.756;110.040;2022-12-18T12:02:03;102407.63;;;1.30;70.53
64908;BME280;64365;-1.756;110.040;2022-12-18T12:04:45;102399.00;;;1.45;71.71
64908;BME280;64365;-1.756;110.040;2022-12-18T12:07:33;102397.88;;;1.05;67.89
64908;BME280;64365;-1.756;110.040;2022-12-18T12:10:12;102392.94;;;1.24;69.49
64908;BME280;64365;-1.756;110.040;2022-12-18T12:13:01;102380.13;;;1.28;68.81
64908;BME280;64365;-1.756;110.040;2022-12-18T12:15:39;102389.28;;;1.25;70.64
64908;BME280;64365;-1.756;110.040;2022-12-18T12:18:21;102378.00;;;1.30;70.39
64908;BME280;64365;-1.756;110.040;2022-12-18T12:20:58;102376.72;;;1.38;70.26
64908;BME280;64365;-1.756;110.040;2022-12-18T12:23:35;102378.03;;;1.35;68.94
64908;BME280;64365;-1.756;110.040;2022-12-18T12:26:08;102373.84;;;1.44;68.56
64908;BME280;64365;-1.756;110.040;2022-12-18T12:28:57;102376.47;;;1.39;68.88
64908;BME280;64365;-1.756;110.040;2022-12-18T12:31:37;102374.38;;;1.41;69.15
64908;BME280;64365;-1.756;110.040;2022-12-18T12:34:16;102366.78;;;1.60;69.37
64908;BME280;64365;-1.756;110.040;2022-12-18T12:36:59;102367.31;;;1.57;68.52
64908;BME280;64365;-1.756;110.040;2022-12-18T12:39:31;102358.13;;;1.44;68.45
64908;BME280;64365;-1.756;110.040;2022-12-18T12:42:01;102351.84;;;1.50;69.80
64908;BME280;64365;-1.756;110.040;2022-12-18T12:44:49;102348.16;;;1.62;70.61
64908;BME280;64365;-1.756;110.040;2022-12-18T12:47:23;102347.66;;;1.60;68.03